Standish, Michigan
Current Conditions -  °F | °C
As of 7:16 PM on Thursday 27 Nov 2014 (Local Time) from KIKW Reporting Station
Broken Clouds Broken Clouds  
Wind Chill: 14°   Ceiling: 4200
Heat Index: 23°   Visibility: 10mi
Dew Point: 14°   Wind: 8mph
Humidity: 67%   Direction: 310°NW
Pressure: 30.28"   Gusts: NA
Location:  43.98°N, 83.96°W
Report Text: KIKW 280016Z AUTO 31007KT 10SM BKN042 M05/M10 A3028 RMK AO2 T10481101
Loading
Personal Weather Stations






























Interactive Weather Map New forecast layout! Learn more

10-Day Weather Forecast

Advertisements
Track Severe Weather on mobile